Old Larissa, Texas
Current Conditions -  °F | °C
As of 2:53 AM on Monday 22 Dec 2014 (Local Time) from KTYR Reporting Station
Overcast Overcast  
Wind Chill: 54°   Ceiling: 1000
Heat Index: 54°   Visibility: 10mi
Dew Point: 49°   Wind: 14mph
Humidity: 83%   Direction: 180°S
Pressure: 29.73"   Gusts: 23mph
Location:  32.1219°N, 95.3574°W
Report Text: KTYR 220853Z AUTO 18012G20KT 10SM BKN010 BKN014 OVC026 12/09 A2973 RMK AO2 CIG 009V013 SLP064 T01220094 56012
Loading
Personal Weather Stations






























Interactive Weather Map New forecast layout! Learn more

10-Day Weather Forecast

Advertisements
Track Severe Weather on mobile